Time;durP1;ratioP1;P1;durP2;ratioP2;P2;SDS_P1;SDS_P2;PMS_P1;PMS_P2;Temp;Humidity;BMP_temperature;BMP_pressure;BME280_temperature;BME280_humidity;BME280_pressure;Samples;Min_cycle;Max_cycle;Signal;HPM_P1;HPM_P2
2023/03/12 00:15:43;;;;;;;13.63;8.10;;;-0.70;99.90;;;;;;4596856;30;20238;-80
2023/03/12 00:51:17;;;;;;;16.60;10.43;;;-0.80;99.90;;;;;;4773596;28;20489;-78
2023/03/12 01:21:08;;;;;;;18.23;11.87;;;-0.60;99.90;;;;;;4718338;29;20680;-78
2023/03/12 01:42:00;;;;;;;19.90;12.20;;;-0.10;99.90;;;;;;4707496;29;20232;-79
2023/03/12 02:07:28;;;;;;;15.97;10.13;;;0.20;99.90;;;;;;4678339;29;20224;-81
2023/03/12 02:32:50;;;;;;;16.03;10.23;;;0.40;99.90;;;;;;4683114;29;20695;-80
2023/03/12 03:08:13;;;;;;;13.53;8.90;;;0.40;99.90;;;;;;4745234;29;20833;-79
2023/03/12 03:48:35;;;;;;;12.07;7.60;;;0.80;99.90;;;;;;4702134;29;20226;-79
2023/03/12 04:09:11;;;;;;;11.67;8.17;;;0.70;99.90;;;;;;4587134;29;20282;-79
2023/03/12 04:34:16;;;;;;;10.27;7.77;;;0.80;99.90;;;;;;4436587;30;21029;-80
2023/03/12 05:35:21;;;;;;;10.43;7.60;;;1.10;99.90;;;;;;4729233;28;21081;-79
2023/03/12 06:05:36;;;;;;;12.40;6.77;;;1.30;99.90;;;;;;4776254;28;20773;-78
2023/03/12 06:41:24;;;;;;;8.47;5.80;;;1.60;97.30;;;;;;4834758;28;20922;-78
2023/03/12 06:45:44;;;;;;;7.87;5.73;;;1.90;95.60;;;;;;4765804;28;20669;-81
2023/03/12 07:11:06;;;;;;;6.53;5.07;;;2.00;94.10;;;;;;4699919;29;20681;-80
2023/03/12 07:31:22;;;;;;;9.67;5.53;;;1.90;94.70;;;;;;4642503;29;20344;-82
2023/03/12 07:57:25;;;;;;;5.40;4.60;;;2.80;90.90;;;;;;4754698;29;20341;-79
2023/03/12 08:22:21;;;;;;;7.47;3.60;;;3.70;84.10;;;;;;4629719;29;20709;-80
2023/03/12 08:47:53;;;;;;;2.20;2.00;;;3.40;78.80;;;;;;4780879;29;20306;-78
2023/03/12 09:28:39;;;;;;;1.70;1.60;;;3.70;71.30;;;;;;4871727;28;20951;-83
2023/03/12 09:53:56;;;;;;;2.40;1.70;;;3.80;74.80;;;;;;4660747;29;20202;-81
2023/03/12 10:14:19;;;;;;;6.10;2.00;;;4.10;75.00;;;;;;4549749;30;20303;-82
2023/03/12 10:44:30;;;;;;;5.87;2.33;;;3.50;78.00;;;;;;4656250;29;20226;-80
2023/03/12 12:09:36;;;;;;;3.53;1.70;;;4.60;54.90;;;;;;5957245;23;20187;-82
2023/03/12 13:15:38;;;;;;;2.77;2.30;;;5.30;49.60;;;;;;5596850;24;20734;-79
2023/03/12 13:50:42;;;;;;;6.37;2.27;;;5.60;47.50;;;;;;5662289;24;20585;-82
2023/03/12 15:21:53;;;;;;;4.67;2.13;;;3.90;70.00;;;;;;5738722;23;20308;-82
2023/03/12 15:42:40;;;;;;;4.40;2.67;;;4.30;71.00;;;;;;5701663;24;20309;-81
2023/03/12 16:18:14;;;;;;;4.63;2.77;;;3.90;75.10;;;;;;5909493;23;20285;-80
2023/03/12 16:43:39;;;;;;;7.13;3.30;;;3.40;76.70;;;;;;5810853;23;20528;-80
2023/03/12 17:14:03;;;;;;;5.17;3.90;;;2.50;80.20;;;;;;5808988;23;20212;-81
2023/03/12 17:39:00;;;;;;;7.70;5.20;;;3.20;79.00;;;;;;5960316;23;20354;-78
2023/03/12 19:15:05;;;;;;;10.63;7.10;;;2.80;81.40;;;;;;5649075;24;20298;-81
2023/03/12 19:36:04;;;;;;;10.60;6.93;;;2.80;81.10;;;;;;5862262;24;20399;-80
2023/03/12 19:40:25;;;;;;;12.20;7.03;;;2.90;80.90;;;;;;5802419;24;20201;-82
2023/03/12 20:01:21;;;;;;;12.10;6.90;;;2.70;81.30;;;;;;5862720;24;20269;-81
2023/03/12 20:26:24;;;;;;;12.60;7.13;;;2.30;82.50;;;;;;5917205;23;20386;-78
2023/03/12 21:17:31;;;;;;;17.07;9.30;;;1.20;87.50;;;;;;5693787;24;20667;-81
2023/03/12 21:21:48;;;;;;;16.57;9.00;;;1.00;88.60;;;;;;5744655;23;20489;-82
2023/03/12 21:42:32;;;;;;;16.07;10.50;;;0.10;95.40;;;;;;5855573;23;21140;-81
2023/03/12 22:38:37;;;;;;;18.83;13.93;;;0.80;93.60;;;;;;5715934;24;20370;-80
2023/03/12 22:42:56;;;;;;;22.80;14.03;;;0.60;94.00;;;;;;5632851;24;20765;-82
2023/03/12 23:03:43;;;;;;;29.10;17.13;;;0.80;93.10;;;;;;5642770;24;20228;-78
2023/03/12 23:34:08;;;;;;;27.23;17.00;;;0.90;94.30;;;;;;5606441;24;21103;-80
2023/03/12 23:58:59;;;;;;;30.07;17.60;;;0.90;96.10;;;;;;5544925;24;20642;-82
